createdAt,value
2023-01-01T00:02:01.056Z,30.33
2023-01-01T00:04:29.599Z,27.53
2023-01-01T00:06:57.742Z,23.90
2023-01-01T00:09:43.122Z,24.20
2023-01-01T00:12:11.283Z,23.43
2023-01-01T00:14:42.862Z,24.60
2023-01-01T00:17:12.340Z,22.00
2023-01-01T00:19:40.299Z,20.00
2023-01-01T00:22:43.692Z,18.70
2023-01-01T00:24:58.682Z,21.10
2023-01-01T00:27:26.702Z,16.70
2023-01-01T00:29:54.752Z,15.37
2023-01-01T00:32:24.156Z,17.13
2023-01-01T00:34:52.289Z,15.17
2023-01-01T00:37:20.263Z,13.73
2023-01-01T00:39:48.222Z,15.27
2023-01-01T00:42:16.211Z,11.97
2023-01-01T00:44:44.167Z,10.57
2023-01-01T00:47:12.160Z,10.03
2023-01-01T00:49:41.465Z,9.60
2023-01-01T00:52:09.435Z,11.20
2023-01-01T00:54:37.439Z,8.97
2023-01-01T00:57:05.623Z,12.20
2023-01-01T00:59:33.980Z,10.80
2023-01-01T01:02:02.186Z,13.00
2023-01-01T01:04:30.360Z,9.73
2023-01-01T01:06:59.761Z,9.57
2023-01-01T01:09:27.786Z,11.33
2023-01-01T01:12:18.237Z,11.80
2023-01-01T01:14:43.797Z,8.90
2023-01-01T01:17:11.821Z,9.13
2023-01-01T01:19:39.800Z,9.40
2023-01-01T01:22:09.159Z,8.83
2023-01-01T01:24:37.153Z,9.17
2023-01-01T01:27:05.168Z,8.60
2023-01-01T01:29:33.124Z,9.43
2023-01-01T01:32:01.126Z,9.90
2023-01-01T01:34:29.123Z,9.47
2023-01-01T01:36:57.109Z,9.67
2023-01-01T01:39:26.504Z,10.03
2023-01-01T01:41:54.508Z,8.33
2023-01-01T01:44:52.409Z,10.17
2023-01-01T01:47:24.817Z,10.63
2023-01-01T01:49:57.803Z,8.77
2023-01-01T01:52:27.417Z,9.23
2023-01-01T01:54:57.384Z,10.73
2023-01-01T01:57:25.782Z,9.57
2023-01-01T01:59:56.921Z,9.30
2023-01-01T02:02:33.663Z,9.00
2023-01-01T02:05:02.327Z,7.77
2023-01-01T02:07:32.767Z,7.37
2023-01-01T02:10:03.191Z,9.10
2023-01-01T02:12:31.512Z,12.13
2023-01-01T02:14:59.581Z,10.13
2023-01-01T02:17:38.701Z,7.80
2023-01-01T02:20:24.810Z,9.50
2023-01-01T02:23:11.454Z,12.40
2023-01-01T02:25:53.705Z,9.23
2023-01-01T02:28:37.476Z,9.63
2023-01-01T02:31:06.561Z,8.30
2023-01-01T02:33:35.483Z,8.57
2023-01-01T02:36:05.488Z,10.03
2023-01-01T02:38:36.469Z,8.60
2023-01-01T02:41:09.515Z,8.20
2023-01-01T02:43:39.238Z,10.27
2023-01-01T02:46:08.839Z,9.53
2023-01-01T02:48:40.730Z,6.90
2023-01-01T02:51:18.699Z,10.33
2023-01-01T02:53:53.344Z,7.07
2023-01-01T02:56:29.403Z,8.27
2023-01-01T02:59:32.675Z,10.10
2023-01-01T03:02:08.616Z,8.20
2023-01-01T03:04:45.964Z,6.47
2023-01-01T03:07:22.779Z,10.27
2023-01-01T03:09:59.523Z,10.87
2023-01-01T03:12:39.779Z,8.47
2023-01-01T03:15:21.685Z,7.07
2023-01-01T03:17:56.565Z,7.70
2023-01-01T03:20:29.415Z,8.70
2023-01-01T03:23:04.734Z,8.70
2023-01-01T03:25:35.933Z,7.07
2023-01-01T03:28:07.602Z,6.67
2023-01-01T03:30:39.849Z,6.93
2023-01-01T03:33:12.535Z,6.77
2023-01-01T03:35:44.900Z,7.90
2023-01-01T03:38:18.589Z,8.37
2023-01-01T03:40:50.550Z,6.60
2023-01-01T03:43:23.091Z,7.80
2023-01-01T03:45:54.681Z,12.47
2023-01-01T03:48:22.688Z,8.13
2023-01-01T03:50:59.456Z,8.10
2023-01-01T03:53:37.435Z,8.20
2023-01-01T03:56:14.027Z,5.90
2023-01-01T03:58:47.650Z,6.60
2023-01-01T04:01:23.658Z,7.47
2023-01-01T04:03:52.322Z,7.53
2023-01-01T04:06:20.649Z,8.60
2023-01-01T04:08:52.138Z,6.97
2023-01-01T04:11:41.807Z,7.10
2023-01-01T04:14:09.766Z,9.17
2023-01-01T04:16:39.821Z,8.40
2023-01-01T04:19:07.981Z,8.60
2023-01-01T04:21:35.956Z,8.97
2023-01-01T04:24:04.051Z,9.83
2023-01-01T04:26:32.479Z,9.07
2023-01-01T04:29:00.504Z,9.80
2023-01-01T04:31:28.508Z,7.50
2023-01-01T04:33:57.875Z,7.33
2023-01-01T04:36:25.881Z,7.77
2023-01-01T04:38:53.912Z,13.60
2023-01-01T04:41:21.879Z,7.93
2023-01-01T04:43:50.566Z,5.70
2023-01-01T04:46:19.481Z,5.93
2023-01-01T04:48:47.870Z,6.70
2023-01-01T04:51:19.168Z,5.40
2023-01-01T04:53:47.271Z,5.63
2023-01-01T04:56:17.262Z,5.10
2023-01-01T04:58:46.067Z,9.33
2023-01-01T05:01:20.532Z,9.33
2023-01-01T05:03:49.483Z,5.20
2023-01-01T05:06:19.378Z,7.47
2023-01-01T05:08:49.720Z,5.00
2023-01-01T05:11:20.345Z,5.20
2023-01-01T05:13:50.203Z,6.20
2023-01-01T05:16:20.458Z,5.10
2023-01-01T05:18:49.705Z,4.97
2023-01-01T05:21:20.837Z,4.93
2023-01-01T05:23:49.251Z,7.20
2023-01-01T05:26:20.484Z,6.40
2023-01-01T05:28:49.473Z,5.07
2023-01-01T05:31:20.075Z,5.47
2023-01-01T05:33:48.849Z,5.40
2023-01-01T05:36:20.837Z,6.77
2023-01-01T05:38:48.993Z,5.50
2023-01-01T05:41:18.234Z,5.27
2023-01-01T05:43:46.550Z,6.93
2023-01-01T05:46:16.671Z,5.87
2023-01-01T05:48:44.807Z,5.50
2023-01-01T05:51:14.956Z,5.33
2023-01-01T05:53:44.761Z,5.00
2023-01-01T05:56:13.505Z,5.10
2023-01-01T05:58:42.144Z,4.80
2023-01-01T06:01:13.116Z,7.80
2023-01-01T06:03:41.919Z,6.70
2023-01-01T06:06:12.863Z,4.97
2023-01-01T06:08:41.182Z,6.60
2023-01-01T06:11:12.863Z,5.73
2023-01-01T06:13:40.840Z,5.07
2023-01-01T06:16:10.591Z,5.10
2023-01-01T06:18:39.247Z,6.53
2023-01-01T06:21:08.696Z,5.10
2023-01-01T06:23:36.855Z,6.57
2023-01-01T06:26:11.420Z,3.87
2023-01-01T06:28:39.953Z,6.40
2023-01-01T06:31:10.826Z,5.00
2023-01-01T06:33:39.744Z,5.83
2023-01-01T06:36:10.553Z,7.93
2023-01-01T06:38:40.860Z,4.57
2023-01-01T06:41:12.857Z,5.57
2023-01-01T06:43:41.286Z,6.20
2023-01-01T06:46:15.050Z,7.67
2023-01-01T06:48:43.197Z,5.13
2023-01-01T06:51:13.066Z,4.67
2023-01-01T06:53:41.292Z,6.40
2023-01-01T06:56:13.720Z,4.87
2023-01-01T06:58:41.816Z,4.60
2023-01-01T07:01:13.626Z,4.47
2023-01-01T07:03:42.410Z,4.83
2023-01-01T07:06:11.202Z,4.13
2023-01-01T07:08:39.481Z,4.83
2023-01-01T07:11:07.527Z,5.93
2023-01-01T07:13:36.932Z,3.77
2023-01-01T07:16:12.378Z,4.43
2023-01-01T07:18:41.593Z,6.10
2023-01-01T07:21:29.672Z,4.37
2023-01-01T07:23:59.193Z,4.00
2023-01-01T07:26:28.327Z,5.40
2023-01-01T07:29:04.511Z,3.70
2023-01-01T07:31:34.410Z,4.30
2023-01-01T07:34:02.549Z,5.83
2023-01-01T07:36:30.595Z,4.53
2023-01-01T07:38:58.600Z,3.70
2023-01-01T07:41:26.673Z,5.03
2023-01-01T07:43:54.653Z,6.47
2023-01-01T07:46:24.024Z,4.30
2023-01-01T07:48:52.117Z,6.73
2023-01-01T07:51:20.201Z,4.07
2023-01-01T07:53:48.158Z,4.77
2023-01-01T07:56:16.247Z,9.50
2023-01-01T07:58:44.278Z,3.40
2023-01-01T08:01:13.540Z,4.80
2023-01-01T08:03:43.205Z,6.50
2023-01-01T08:06:13.332Z,5.20
2023-01-01T08:08:41.971Z,3.10
2023-01-01T08:11:10.188Z,5.00
2023-01-01T08:13:38.274Z,3.90
2023-01-01T08:16:07.111Z,7.70
2023-01-01T08:18:35.282Z,4.23
2023-01-01T08:21:05.433Z,3.43
2023-01-01T08:23:33.437Z,4.50
2023-01-01T08:26:02.201Z,3.80
2023-01-01T08:28:31.365Z,5.20
2023-01-01T08:31:00.290Z,5.47
2023-01-01T08:33:28.374Z,4.80
2023-01-01T08:35:56.511Z,4.00
2023-01-01T08:38:25.929Z,4.60
2023-01-01T08:40:54.077Z,3.80
2023-01-01T08:43:22.067Z,5.57
2023-01-01T08:45:50.042Z,3.60
2023-01-01T08:48:18.580Z,4.83
2023-01-01T08:50:52.890Z,4.77
2023-01-01T08:53:20.892Z,4.60
2023-01-01T08:55:58.640Z,4.27
2023-01-01T08:58:27.397Z,14.73
2023-01-01T09:00:55.825Z,4.03
2023-01-01T09:03:24.027Z,3.73
2023-01-01T09:05:52.193Z,4.93
2023-01-01T09:08:20.443Z,3.57
2023-01-01T09:10:49.248Z,5.00
2023-01-01T09:13:22.558Z,5.43
2023-01-01T09:15:50.783Z,5.73
2023-01-01T09:18:18.871Z,3.80
2023-01-01T09:20:51.194Z,3.43
2023-01-01T09:23:19.180Z,3.27
2023-01-01T09:25:47.150Z,4.40
2023-01-01T09:28:17.202Z,4.63
2023-01-01T09:30:48.568Z,5.80
2023-01-01T09:33:16.607Z,4.10
2023-01-01T09:35:44.729Z,4.03
2023-01-01T09:38:12.704Z,6.20
2023-01-01T09:40:53.205Z,17.80
2023-01-01T09:43:33.821Z,6.10
2023-01-01T09:46:06.525Z,17.10
2023-01-01T09:48:38.556Z,5.60
2023-01-01T09:51:14.464Z,4.47
2023-01-01T09:53:46.336Z,6.57
2023-01-01T09:56:20.392Z,5.50
2023-01-01T09:58:48.430Z,7.07
2023-01-01T10:01:26.034Z,7.40
2023-01-01T10:04:01.732Z,5.63
2023-01-01T10:06:32.909Z,5.10
2023-01-01T10:09:10.541Z,4.40
2023-01-01T10:11:46.624Z,4.10
2023-01-01T10:14:21.029Z,5.17
2023-01-01T10:16:55.709Z,4.10
2023-01-01T10:19:32.719Z,4.20
2023-01-01T10:22:05.174Z,5.00
2023-01-01T10:24:43.841Z,4.60
2023-01-01T10:27:24.021Z,4.27
2023-01-01T10:29:58.044Z,4.77
2023-01-01T10:32:34.140Z,3.37
2023-01-01T10:35:03.914Z,6.10
2023-01-01T10:37:36.677Z,3.70
2023-01-01T10:40:08.982Z,4.40
2023-01-01T10:42:37.024Z,6.47
2023-01-01T10:45:06.140Z,4.83
2023-01-01T10:47:35.549Z,5.07
2023-01-01T10:50:07.890Z,4.40
2023-01-01T10:52:41.573Z,3.63
2023-01-01T10:55:24.844Z,7.47
2023-01-01T10:57:52.817Z,5.13
2023-01-01T11:00:26.124Z,3.40
2023-01-01T11:03:19.220Z,6.17
2023-01-01T11:06:05.607Z,5.73
2023-01-01T11:08:35.575Z,4.03
2023-01-01T11:11:05.153Z,4.67
2023-01-01T11:13:34.297Z,6.30
2023-01-01T11:16:02.526Z,5.33
2023-01-01T11:18:36.024Z,5.80
2023-01-01T11:21:06.909Z,3.50
2023-01-01T11:23:37.095Z,8.20
2023-01-01T11:26:08.275Z,4.33
2023-01-01T11:28:37.524Z,3.73
2023-01-01T11:31:24.395Z,5.07
2023-01-01T11:34:05.024Z,4.67
2023-01-01T11:36:35.580Z,3.87
2023-01-01T11:39:21.819Z,4.60
2023-01-01T11:41:51.833Z,3.60
2023-01-01T11:44:46.603Z,4.13
2023-01-01T11:47:31.875Z,3.27
2023-01-01T11:50:25.532Z,4.33
2023-01-01T11:53:06.974Z,6.13
2023-01-01T11:58:52.802Z,3.63
2023-01-01T12:01:33.094Z,3.80
2023-01-01T12:04:08.238Z,5.70
2023-01-01T12:06:42.672Z,4.30
2023-01-01T12:09:18.604Z,5.80
2023-01-01T12:11:52.455Z,5.80
2023-01-01T12:14:28.276Z,5.03
2023-01-01T12:17:05.456Z,4.13
2023-01-01T12:19:41.118Z,4.03
2023-01-01T12:22:17.369Z,6.63
2023-01-01T12:24:46.993Z,4.43
2023-01-01T12:27:20.152Z,5.70
2023-01-01T12:30:07.024Z,4.40
2023-01-01T12:32:53.051Z,4.80
2023-01-01T12:35:44.144Z,5.63
2023-01-01T12:38:31.097Z,8.00
2023-01-01T12:41:07.653Z,4.77
2023-01-01T12:43:44.983Z,3.93
2023-01-01T12:46:30.137Z,4.63
2023-01-01T12:49:28.074Z,3.60
2023-01-01T12:52:06.513Z,3.83
2023-01-01T12:55:06.918Z,3.37
2023-01-01T12:57:40.769Z,5.63
2023-01-01T13:00:14.894Z,4.10
2023-01-01T13:02:49.335Z,5.13
2023-01-01T13:05:23.328Z,4.20
2023-01-01T13:07:55.688Z,4.00
2023-01-01T13:10:28.756Z,7.57
2023-01-01T13:12:57.692Z,3.97
2023-01-01T13:15:45.973Z,4.53
2023-01-01T13:18:24.886Z,6.90
2023-01-01T13:21:21.308Z,3.90
2023-01-01T13:23:51.990Z,4.57
2023-01-01T13:26:38.603Z,4.93
2023-01-01T13:29:35.453Z,3.80
2023-01-01T13:32:11.241Z,7.53
2023-01-01T13:34:58.472Z,8.07
2023-01-01T13:37:31.557Z,5.37
2023-01-01T13:40:00.960Z,3.40
2023-01-01T13:42:52.315Z,4.50
2023-01-01T13:46:09.340Z,3.17
2023-01-01T13:48:33.372Z,4.73
2023-01-01T13:51:40.094Z,3.30
2023-01-01T13:54:35.379Z,5.87
2023-01-01T13:57:08.646Z,4.37
2023-01-01T13:59:58.788Z,5.07
2023-01-01T14:02:30.151Z,3.27
2023-01-01T14:05:03.362Z,10.73
2023-01-01T14:07:52.125Z,4.77
2023-01-01T14:10:27.833Z,4.93
2023-01-01T14:13:02.356Z,3.73
2023-01-01T14:15:33.630Z,5.00
2023-01-01T14:18:05.031Z,3.87
2023-01-01T14:20:37.313Z,5.27
2023-01-01T14:23:10.000Z,5.53
2023-01-01T14:25:38.825Z,4.50
2023-01-01T14:28:13.877Z,4.70
2023-01-01T14:30:45.680Z,8.17
2023-01-01T14:33:24.459Z,4.50
2023-01-01T14:35:53.828Z,4.97
2023-01-01T14:38:27.186Z,4.47
2023-01-01T14:41:11.820Z,6.40
2023-01-01T14:43:40.742Z,6.70
2023-01-01T14:46:16.337Z,7.93
2023-01-01T14:48:46.249Z,6.67
2023-01-01T14:51:16.710Z,7.83
2023-01-01T14:53:46.595Z,5.20
2023-01-01T14:56:23.395Z,7.03
2023-01-01T14:58:51.544Z,6.60
2023-01-01T15:01:25.214Z,9.60
2023-01-01T15:03:58.313Z,7.20
2023-01-01T15:06:26.755Z,6.33
2023-01-01T15:08:55.170Z,9.93
2023-01-01T15:11:28.727Z,8.30
2023-01-01T15:13:59.785Z,10.23
2023-01-01T15:16:36.323Z,7.50
2023-01-01T15:19:19.214Z,11.30
2023-01-01T15:21:47.381Z,10.80
2023-01-01T15:24:20.316Z,10.20
2023-01-01T15:26:52.643Z,8.67
2023-01-01T15:29:28.312Z,6.93
2023-01-01T15:31:59.622Z,12.80
2023-01-01T15:34:31.611Z,6.80
2023-01-01T15:37:11.541Z,8.00
2023-01-01T15:39:47.408Z,7.07
2023-01-01T15:42:34.422Z,7.80
2023-01-01T15:45:23.193Z,10.03
2023-01-01T15:47:53.923Z,7.37
2023-01-01T15:50:25.162Z,6.80
2023-01-01T15:52:56.445Z,8.13
2023-01-01T15:55:27.075Z,8.30
2023-01-01T15:57:55.810Z,9.03
2023-01-01T16:00:26.185Z,8.07
2023-01-01T16:02:59.209Z,11.93
2023-01-01T16:05:28.810Z,10.27
2023-01-01T16:08:00.320Z,14.67
2023-01-01T16:10:28.665Z,11.37
2023-01-01T16:12:56.784Z,13.13
2023-01-01T16:15:24.904Z,12.37
2023-01-01T16:17:53.222Z,12.63
2023-01-01T16:20:22.726Z,12.00
2023-01-01T16:22:50.746Z,12.53
2023-01-01T16:25:20.837Z,16.60
2023-01-01T16:27:49.396Z,12.43
2023-01-01T16:30:17.644Z,12.00
2023-01-01T16:32:48.982Z,13.70
2023-01-01T16:35:17.323Z,10.67
2023-01-01T16:37:46.705Z,10.57
2023-01-01T16:40:15.416Z,12.10
2023-01-01T16:42:43.593Z,8.23
2023-01-01T16:45:18.739Z,9.87
2023-01-01T16:47:47.548Z,9.40
2023-01-01T16:50:16.019Z,9.93
2023-01-01T16:52:45.109Z,6.27
2023-01-01T16:55:15.252Z,5.50
2023-01-01T16:57:44.548Z,9.17
2023-01-01T17:00:13.807Z,6.57
2023-01-01T17:02:42.446Z,8.43
2023-01-01T17:05:11.718Z,6.93
2023-01-01T17:07:39.746Z,6.83
2023-01-01T17:10:08.427Z,7.23
2023-01-01T17:12:37.815Z,6.50
2023-01-01T17:15:07.074Z,4.80
2023-01-01T17:17:35.099Z,6.43
2023-01-01T17:20:03.297Z,5.60
2023-01-01T17:22:34.377Z,5.27
2023-01-01T17:25:03.032Z,6.90
2023-01-01T17:27:31.107Z,9.03
2023-01-01T17:30:00.522Z,3.80
2023-01-01T17:32:34.418Z,4.33
2023-01-01T17:35:02.608Z,4.63
2023-01-01T17:37:32.914Z,5.23
2023-01-01T17:40:00.947Z,4.97
2023-01-01T17:42:29.030Z,5.80
2023-01-01T17:44:57.020Z,6.40
2023-01-01T17:47:30.911Z,6.53
2023-01-01T17:50:00.711Z,7.33
2023-01-01T17:52:28.760Z,8.40
2023-01-01T17:54:56.730Z,5.00
2023-01-01T17:57:25.344Z,6.13
2023-01-01T17:59:58.791Z,5.47
2023-01-01T18:02:28.454Z,6.67
2023-01-01T18:04:56.682Z,5.73
2023-01-01T18:07:24.724Z,6.40
2023-01-01T18:09:52.692Z,6.83
2023-01-01T18:12:20.705Z,4.80
2023-01-01T18:14:48.936Z,5.47
2023-01-01T18:17:16.963Z,5.60
2023-01-01T18:19:46.506Z,6.43
2023-01-01T18:22:14.634Z,5.57
2023-01-01T18:24:42.663Z,5.77
2023-01-01T18:27:10.729Z,5.10
2023-01-01T18:29:38.801Z,14.23
2023-01-01T18:32:06.810Z,6.13
2023-01-01T18:34:34.900Z,7.73
2023-01-01T18:37:04.303Z,8.13
2023-01-01T18:39:34.877Z,4.40
2023-01-01T18:42:22.131Z,5.50
2023-01-01T18:44:50.270Z,6.33
2023-01-01T18:47:20.142Z,7.30
2023-01-01T18:49:50.959Z,5.33
2023-01-01T18:52:25.516Z,6.90
2023-01-01T18:55:02.036Z,4.73
2023-01-01T18:57:30.082Z,6.17
2023-01-01T19:00:00.387Z,7.07
2023-01-01T19:02:36.067Z,7.70
2023-01-01T19:05:17.467Z,6.50
2023-01-01T19:07:52.461Z,7.33
2023-01-01T19:10:20.560Z,7.60
2023-01-01T19:12:49.765Z,6.77
2023-01-01T19:15:19.222Z,4.83
2023-01-01T19:17:47.457Z,6.20
2023-01-01T19:20:18.438Z,8.00
2023-01-01T19:22:48.209Z,6.30
2023-01-01T19:25:37.013Z,5.90
2023-01-01T19:28:32.994Z,5.20
2023-01-01T19:31:02.424Z,5.10
2023-01-01T19:33:30.806Z,4.10
2023-01-01T19:35:59.182Z,6.30
2023-01-01T19:38:28.646Z,3.50
2023-01-01T19:40:56.718Z,6.23
2023-01-01T19:43:24.780Z,3.73
2023-01-01T19:45:52.894Z,2.67
2023-01-01T19:48:20.924Z,2.73
2023-01-01T19:50:48.953Z,4.50
2023-01-01T19:53:16.995Z,2.40
2023-01-01T19:55:47.102Z,1.93
2023-01-01T19:58:15.158Z,2.70
2023-01-01T20:00:43.212Z,2.77
2023-01-01T20:03:43.338Z,2.90
2023-01-01T20:05:59.488Z,4.97
2023-01-01T20:08:28.614Z,2.40
2023-01-01T20:10:58.119Z,3.23
2023-01-01T20:13:26.256Z,2.30
2023-01-01T20:15:54.417Z,3.60
2023-01-01T20:18:22.540Z,4.67
2023-01-01T20:21:08.072Z,3.33
2023-01-01T20:23:36.155Z,2.17
2023-01-01T20:26:05.820Z,2.60
2023-01-01T20:28:51.158Z,2.87
2023-01-01T20:31:19.282Z,2.70
2023-01-01T20:33:47.481Z,2.77
2023-01-01T20:36:33.210Z,3.07
2023-01-01T20:39:01.234Z,2.67
2023-01-01T20:41:30.695Z,3.37
2023-01-01T20:44:01.509Z,2.97
2023-01-01T20:46:30.756Z,2.53
2023-01-01T20:48:59.380Z,5.90
2023-01-01T20:51:27.538Z,3.70
2023-01-01T20:53:55.659Z,3.03
2023-01-01T20:56:23.819Z,2.03
2023-01-01T20:59:00.191Z,2.40
2023-01-01T21:01:33.236Z,3.97
2023-01-01T21:04:01.407Z,2.17
2023-01-01T21:06:29.438Z,2.00
2023-01-01T21:08:57.487Z,2.90
2023-01-01T21:11:25.510Z,1.93
2023-01-01T21:13:54.853Z,2.83
2023-01-01T21:16:26.173Z,3.50
2023-01-01T21:18:54.245Z,2.97
2023-01-01T21:21:23.938Z,2.23
2023-01-01T21:23:53.745Z,4.43
2023-01-01T21:26:26.447Z,2.47
2023-01-01T21:28:55.838Z,3.30
2023-01-01T21:31:23.882Z,3.47
2023-01-01T21:33:51.878Z,3.60
2023-01-01T21:36:22.206Z,1.70
2023-01-01T21:38:51.319Z,2.27
2023-01-01T21:41:22.499Z,2.40
2023-01-01T21:43:51.983Z,3.27
2023-01-01T21:46:40.922Z,2.60
2023-01-01T21:49:18.088Z,3.10
2023-01-01T21:51:51.380Z,3.70
2023-01-01T21:54:24.037Z,2.87
2023-01-01T21:56:58.752Z,2.00
2023-01-01T21:59:36.130Z,1.90
2023-01-01T22:02:31.599Z,2.60
2023-01-01T22:05:03.038Z,2.27
2023-01-01T22:10:25.075Z,1.80
2023-01-01T22:12:56.987Z,3.30
2023-01-01T22:15:39.039Z,3.00
2023-01-01T22:18:24.208Z,2.17
2023-01-01T22:20:52.279Z,3.97
2023-01-01T22:23:39.134Z,2.30
2023-01-01T22:26:19.383Z,3.40
2023-01-01T22:28:49.216Z,3.73
2023-01-01T22:31:21.586Z,3.73
2023-01-01T22:33:52.843Z,2.43
2023-01-01T22:36:25.462Z,2.77
2023-01-01T22:38:56.545Z,1.73
2023-01-01T22:41:24.570Z,2.73
2023-01-01T22:43:57.090Z,2.60
2023-01-01T22:46:29.086Z,2.30
2023-01-01T22:49:01.990Z,3.03
2023-01-01T22:51:35.201Z,2.73
2023-01-01T22:54:03.124Z,2.80
2023-01-01T22:56:31.085Z,3.27
2023-01-01T22:58:59.061Z,4.13
2023-01-01T23:01:27.166Z,4.20
2023-01-01T23:03:55.388Z,2.50
2023-01-01T23:06:25.090Z,2.93
2023-01-01T23:08:54.020Z,4.03
2023-01-01T23:11:22.909Z,3.77
2023-01-01T23:14:09.937Z,2.80
2023-01-01T23:16:38.319Z,5.93
2023-01-01T23:19:06.604Z,1.90
2023-01-01T23:21:37.073Z,1.73
2023-01-01T23:24:10.115Z,2.97
2023-01-01T23:26:39.590Z,2.30
2023-01-01T23:29:08.314Z,3.30
2023-01-01T23:31:36.862Z,4.10
2023-01-01T23:34:05.603Z,2.90
2023-01-01T23:36:35.375Z,3.20
2023-01-01T23:39:03.386Z,3.03
2023-01-01T23:41:32.091Z,2.07
2023-01-01T23:44:00.107Z,2.10
2023-01-01T23:46:28.268Z,4.03
2023-01-01T23:48:56.704Z,2.93
2023-01-01T23:51:24.844Z,3.10
2023-01-01T23:53:54.158Z,3.30
2023-01-01T23:56:22.835Z,3.50
2023-01-01T23:58:50.852Z,2.60
